Time;durP1;ratioP1;P1;durP2;ratioP2;P2;SDS_P1;SDS_P2;PMS_P1;PMS_P2;Temp;Humidity;BMP_temperature;BMP_pressure;BME280_temperature;BME280_humidity;BME280_pressure;Samples;Min_cycle;Max_cycle;Signal;HPM_P1;HPM_P2
2023/09/02 00:01:48;;;;;;;5.40;3.70;;;;;;;11.48;100.00;97851.70;110433;1242;58940;-68
2023/09/02 00:04:17;;;;;;;;;;;;;;;11.45;100.00;97849.59;110462;1242;58895;-66
2023/09/02 00:06:48;;;;;;;6.20;3.90;;;;;;;11.44;100.00;97855.49;110302;1242;70592;-67
2023/09/02 00:09:17;;;;;;;4.80;3.40;;;;;;;11.42;100.00;97855.09;110479;1239;69126;-67
2023/09/02 00:11:47;;;;;;;3.60;3.20;;;;;;;11.39;100.00;97857.38;110435;1240;68577;-67
2023/09/02 00:14:17;;;;;;;3.60;3.30;;;;;;;11.37;100.00;97856.46;110508;1241;58906;-67
2023/09/02 00:16:47;;;;;;;4.00;3.10;;;;;;;11.35;100.00;97858.73;110350;1240;58949;-67
2023/09/02 00:19:17;;;;;;;;;;;;;;;11.32;100.00;97858.73;110440;1242;70582;-67
2023/09/02 00:21:46;;;;;;;4.40;3.00;;;;;;;11.29;100.00;97860.36;110426;1242;69782;-67
2023/09/02 00:24:17;;;;;;;4.30;3.00;;;;;;;11.28;100.00;97861.49;110505;1243;69550;-67
2023/09/02 00:26:47;;;;;;;4.50;3.20;;;;;;;11.26;100.00;97856.90;110285;1241;58866;-66
2023/09/02 00:29:18;;;;;;;3.90;2.80;;;;;;;11.29;100.00;97858.30;110422;1241;58884;-66
2023/09/02 00:31:48;;;;;;;4.90;3.30;;;;;;;11.25;100.00;97854.35;110519;1242;70604;-67
2023/09/02 00:34:18;;;;;;;4.10;3.30;;;;;;;11.24;100.00;97851.98;110498;1242;69258;-67
2023/09/02 00:36:49;;;;;;;4.10;3.10;;;;;;;11.24;100.00;97845.74;110279;1242;68849;-67
2023/09/02 00:39:22;;;;;;;4.20;3.10;;;;;;;11.22;100.00;97847.40;110467;1242;58939;-67
2023/09/02 00:41:56;;;;;;;4.00;3.10;;;;;;;11.21;100.00;97841.20;110153;1243;58874;-66
2023/09/02 00:44:27;;;;;;;3.80;3.00;;;;;;;11.20;100.00;97841.41;110330;1244;70622;-66
2023/09/02 00:46:59;;;;;;;4.20;3.10;;;;;;;11.24;100.00;97844.52;110377;1241;69176;-68
2023/09/02 00:49:31;;;;;;;3.90;3.10;;;;;;;11.23;100.00;97845.41;110170;1245;68117;-66
2023/09/02 00:52:01;;;;;;;3.80;3.10;;;;;;;11.24;100.00;97847.13;110334;1242;58944;-67
2023/09/02 00:54:33;;;;;;;5.00;3.00;;;;;;;11.23;100.00;97848.36;110416;1241;58794;-66
2023/09/02 00:57:06;;;;;;;3.60;2.90;;;;;;;11.24;100.00;97849.92;110334;1242;70416;-67
2023/09/02 00:59:36;;;;;;;5.00;3.30;;;;;;;11.19;100.00;97844.60;110393;1241;68340;-66
2023/09/02 01:02:09;;;;;;;3.90;3.10;;;;;;;11.16;100.00;97847.95;110293;1242;69638;-67
2023/09/02 01:04:39;;;;;;;3.70;3.30;;;;;;;11.13;100.00;97846.09;110324;1242;58963;-66
2023/09/02 01:07:08;;;;;;;;;;;;;;;11.09;100.00;97847.63;110381;1241;58928;-68
2023/09/02 01:09:38;;;;;;;4.10;3.00;;;;;;;11.05;100.00;97846.64;110374;1241;70990;-67
2023/09/02 01:12:10;;;;;;;4.50;3.20;;;;;;;11.03;100.00;97848.73;110328;1244;68889;-66
2023/09/02 01:14:39;;;;;;;4.10;3.50;;;;;;;11.01;100.00;97846.89;110338;1242;68666;-66
2023/09/02 01:17:09;;;;;;;3.90;3.10;;;;;;;11.00;100.00;97847.86;110344;1242;58876;-67
2023/09/02 01:19:43;;;;;;;4.80;3.60;;;;;;;10.99;100.00;97844.42;110158;1246;58875;-66
2023/09/02 01:22:34;;;;;;;3.70;3.00;;;;;;;10.97;100.00;97848.44;110389;1241;69625;-66
2023/09/02 01:25:16;;;;;;;3.90;3.40;;;;;;;10.96;100.00;97843.06;110149;1244;68539;-66
2023/09/02 01:27:55;;;;;;;4.80;3.40;;;;;;;10.96;100.00;97840.26;110182;1243;69293;-66
2023/09/02 01:30:37;;;;;;;4.40;3.20;;;;;;;10.96;100.00;97837.48;110314;1248;58886;-66
2023/09/02 01:33:12;;;;;;;4.80;3.60;;;;;;;10.95;100.00;97834.42;110360;1241;58843;-66
2023/09/02 01:35:47;;;;;;;4.30;3.40;;;;;;;10.94;100.00;97833.90;110185;1245;70559;-66
2023/09/02 01:38:24;;;;;;;3.70;3.10;;;;;;;10.93;100.00;97835.91;110347;1243;68580;-66
2023/09/02 01:40:58;;;;;;;5.10;3.80;;;;;;;10.94;100.00;97836.87;110312;1244;68364;-67
2023/09/02 01:43:35;;;;;;;4.20;3.30;;;;;;;10.93;100.00;97835.43;110377;1241;58870;-66
2023/09/02 01:46:08;;;;;;;7.90;3.40;;;;;;;10.91;100.00;97836.61;110450;1242;58960;-66
2023/09/02 01:48:40;;;;;;;4.70;3.20;;;;;;;10.88;100.00;97842.71;110382;1242;69722;-66
2023/09/02 01:51:14;;;;;;;4.00;3.20;;;;;;;10.84;100.00;97845.96;110419;1243;69122;-66
2023/09/02 01:53:47;;;;;;;4.50;3.30;;;;;;;10.79;100.00;97848.92;110261;1247;69217;-66
2023/09/02 01:56:19;;;;;;;3.70;3.20;;;;;;;10.75;100.00;97853.35;110301;1242;58905;-66
2023/09/02 01:58:50;;;;;;;4.30;3.60;;;;;;;10.71;100.00;97848.04;110220;1244;58892;-66
2023/09/02 02:01:24;;;;;;;4.70;3.60;;;;;;;10.62;100.00;97847.77;110162;1240;70446;-66
2023/09/02 02:04:16;;;;;;;3.80;3.20;;;;;;;10.55;100.00;97852.45;110382;1242;69090;-66
2023/09/02 02:06:51;;;;;;;4.40;3.10;;;;;;;10.50;100.00;97851.38;110405;1242;69083;-66
2023/09/02 02:09:47;;;;;;;4.50;3.60;;;;;;;10.46;100.00;97850.38;110394;1241;58950;-67
2023/09/02 02:12:21;;;;;;;5.50;3.70;;;;;;;10.42;100.00;97848.17;110456;1242;58828;-67
2023/09/02 02:14:55;;;;;;;4.40;3.30;;;;;;;10.39;100.00;97849.25;110232;1243;69654;-66
2023/09/02 02:17:25;;;;;;;4.30;3.00;;;;;;;10.38;100.00;97846.36;110154;1245;69764;-66
2023/09/02 02:19:55;;;;;;;3.80;2.80;;;;;;;10.35;100.00;97845.34;110198;1243;69342;-66
2023/09/02 02:22:27;;;;;;;4.40;3.60;;;;;;;10.38;100.00;97841.52;110286;1248;59005;-67
2023/09/02 02:24:58;;;;;;;5.00;3.50;;;;;;;10.40;100.00;97842.22;110367;1242;58888;-67
2023/09/02 02:27:28;;;;;;;5.10;4.10;;;;;;;10.42;100.00;97840.20;110414;1242;70604;-66
2023/09/02 02:29:59;;;;;;;4.60;3.70;;;;;;;10.42;100.00;97842.82;110338;1242;69048;-67
2023/09/02 02:32:30;;;;;;;4.30;3.10;;;;;;;10.42;100.00;97845.94;110368;1241;69326;-66
2023/09/02 02:35:01;;;;;;;3.80;3.10;;;;;;;10.43;100.00;97845.37;110241;1244;59360;-66
2023/09/02 02:37:31;;;;;;;4.40;3.40;;;;;;;10.43;100.00;97846.40;110379;1242;58792;-67
2023/09/02 02:40:05;;;;;;;4.20;3.20;;;;;;;10.43;100.00;97845.54;110458;1241;70766;-67
2023/09/02 02:42:36;;;;;;;4.00;3.00;;;;;;;10.40;100.00;97844.17;110170;1244;69131;-66
2023/09/02 02:45:07;;;;;;;3.70;3.20;;;;;;;10.35;100.00;97842.25;110480;1245;69281;-66
2023/09/02 02:47:37;;;;;;;4.00;3.30;;;;;;;10.30;100.00;97840.11;110501;1242;58899;-67
2023/09/02 02:50:12;;;;;;;4.20;3.20;;;;;;;10.26;100.00;97840.74;110494;1242;58886;-67
2023/09/02 02:52:46;;;;;;;4.80;3.00;;;;;;;10.23;100.00;97834.61;110505;1241;70279;-67
2023/09/02 02:55:17;;;;;;;4.70;3.60;;;;;;;10.22;100.00;97836.11;110560;1242;68444;-67
2023/09/02 02:57:48;;;;;;;5.70;3.40;;;;;;;10.18;100.00;97833.69;110508;1245;68386;-67
2023/09/02 03:00:19;;;;;;;4.50;2.80;;;;;;;10.16;100.00;97831.92;110199;1244;58924;-68
2023/09/02 03:02:52;;;;;;;4.60;3.70;;;;;;;10.15;100.00;97829.38;110376;1243;58854;-68
2023/09/02 03:05:24;;;;;;;4.70;3.30;;;;;;;10.14;100.00;97829.27;110492;1242;69679;-67
2023/09/02 03:07:56;;;;;;;4.90;3.20;;;;;;;10.13;100.00;97829.51;110455;1240;68480;-68
2023/09/02 03:10:25;;;;;;;4.60;3.00;;;;;;;10.14;100.00;97827.16;110328;1241;68217;-66
2023/09/02 03:12:57;;;;;;;3.80;3.30;;;;;;;10.13;100.00;97833.84;110351;1250;58868;-68
2023/09/02 03:15:27;;;;;;;3.50;2.80;;;;;;;10.11;100.00;97835.92;110141;1245;58894;-68
2023/09/02 03:17:59;;;;;;;4.10;3.30;;;;;;;10.06;100.00;97839.54;110249;1244;70023;-65
2023/09/02 03:20:32;;;;;;;4.40;3.20;;;;;;;10.01;100.00;97843.84;110179;1244;68393;-67
2023/09/02 03:23:06;;;;;;;4.60;3.00;;;;;;;9.98;100.00;97846.68;110207;1244;68539;-67
2023/09/02 03:25:37;;;;;;;4.60;3.40;;;;;;;9.93;100.00;97845.23;110372;1244;58899;-67
2023/09/02 03:28:09;;;;;;;4.80;3.70;;;;;;;9.89;100.00;97848.42;110212;1246;58830;-68
2023/09/02 03:30:40;;;;;;;4.50;3.40;;;;;;;9.89;100.00;97854.55;110533;1242;70517;-66
2023/09/02 03:33:14;;;;;;;4.30;3.20;;;;;;;9.87;100.00;97853.59;110472;1242;68419;-66
2023/09/02 03:35:46;;;;;;;5.70;4.00;;;;;;;9.84;100.00;97856.27;110452;1241;69279;-67
2023/09/02 03:38:15;;;;;;;5.30;4.00;;;;;;;9.79;100.00;97857.11;110508;1239;58899;-67
2023/09/02 03:40:46;;;;;;;4.60;3.20;;;;;;;9.75;100.00;97860.84;110557;1242;58869;-67
2023/09/02 03:43:19;;;;;;;3.90;3.20;;;;;;;9.73;100.00;97863.06;110205;1245;70595;-67
2023/09/02 03:45:50;;;;;;;4.20;3.20;;;;;;;9.71;100.00;97865.05;110466;1242;69208;-67
2023/09/02 03:48:22;;;;;;;4.80;3.40;;;;;;;9.69;100.00;97861.81;110366;1241;69084;-66
2023/09/02 03:51:05;;;;;;;5.70;4.00;;;;;;;9.69;100.00;97863.27;110295;1242;58878;-67
2023/09/02 03:53:39;;;;;;;3.60;3.00;;;;;;;9.71;100.00;97868.20;110160;1246;58870;-67
2023/09/02 03:56:10;;;;;;;5.30;3.80;;;;;;;9.71;100.00;97871.84;110334;1242;70607;-67
2023/09/02 03:58:40;;;;;;;5.40;4.00;;;;;;;9.72;100.00;97872.52;110379;1249;69299;-67
2023/09/02 04:01:11;;;;;;;5.40;3.90;;;;;;;9.73;100.00;97873.85;110442;1240;68530;-67
2023/09/02 04:03:43;;;;;;;4.70;3.90;;;;;;;9.78;100.00;97879.45;110232;1242;58942;-67
2023/09/02 04:06:13;;;;;;;5.90;4.40;;;;;;;9.84;100.00;97879.41;110465;1242;58879;-67
2023/09/02 04:08:43;;;;;;;4.80;3.70;;;;;;;9.90;100.00;97884.73;110472;1249;70192;-67
2023/09/02 04:11:15;;;;;;;3.50;2.90;;;;;;;9.98;100.00;97883.61;110487;1242;69251;-66
2023/09/02 04:13:45;;;;;;;4.80;4.00;;;;;;;10.05;100.00;97883.83;110434;1242;68501;-65
2023/09/02 04:16:17;;;;;;;5.30;3.90;;;;;;;10.12;100.00;97887.37;110195;1243;58880;-67
2023/09/02 04:18:46;;;;;;;;;;;;;;;10.18;100.00;97889.44;110380;1242;58971;-67
2023/09/02 04:21:16;;;;;;;4.80;3.10;;;;;;;10.29;100.00;97886.69;110191;1242;70429;-66
2023/09/02 04:23:48;;;;;;;5.20;3.30;;;;;;;10.48;100.00;97886.53;110380;1242;69384;-65
2023/09/02 04:26:21;;;;;;;4.80;3.70;;;;;;;10.72;100.00;97890.36;110462;1241;68506;-66
2023/09/02 04:28:50;;;;;;;6.80;5.10;;;;;;;10.99;100.00;97889.23;110459;1244;58886;-67
2023/09/02 04:31:22;;;;;;;8.30;5.90;;;;;;;11.26;100.00;97891.46;110514;1242;58856;-67
2023/09/02 04:33:52;;;;;;;16.50;11.40;;;;;;;11.50;100.00;97890.81;110543;1241;71526;-67
2023/09/02 04:36:22;;;;;;;17.80;11.00;;;;;;;11.75;100.00;97892.25;110544;1241;69873;-67
2023/09/02 04:38:53;;;;;;;14.50;9.10;;;;;;;11.97;100.00;97892.48;110192;1242;69367;-67
2023/09/02 04:41:23;;;;;;;12.50;8.30;;;;;;;12.09;100.00;97893.01;110187;1242;59345;-67
2023/09/02 04:43:52;;;;;;;8.80;6.40;;;;;;;12.12;100.00;97895.42;110230;1242;58854;-67
2023/09/02 04:46:23;;;;;;;27.00;17.90;;;;;;;12.26;100.00;97894.73;110537;1248;71175;-67
2023/09/02 04:48:54;;;;;;;25.10;15.90;;;;;;;12.52;100.00;97897.27;110221;1243;68493;-67
2023/09/02 04:51:23;;;;;;;22.90;14.00;;;;;;;12.84;100.00;97896.80;110185;1242;69287;-66
2023/09/02 04:53:54;;;;;;;20.20;13.30;;;;;;;13.08;100.00;97899.23;110235;1242;58947;-67
2023/09/02 04:56:24;;;;;;;10.90;7.80;;;;;;;13.38;100.00;97892.95;110393;1243;58863;-67
2023/09/02 04:58:55;;;;;;;8.30;6.70;;;;;;;13.62;100.00;97896.86;110320;1243;70654;-67
2023/09/02 05:01:26;;;;;;;6.30;5.00;;;;;;;13.90;100.00;97892.58;110385;1242;69137;-67
2023/09/02 05:03:58;;;;;;;5.90;4.50;;;;;;;14.09;100.00;97895.27;110408;1241;70159;-66
2023/09/02 05:06:31;;;;;;;6.00;4.40;;;;;;;14.23;100.00;97898.21;110453;1244;58854;-67
2023/09/02 05:09:00;;;;;;;;;;;;;;;14.33;100.00;97900.73;110180;1246;58860;-67
2023/09/02 05:11:32;;;;;;;4.70;3.70;;;;;;;14.61;100.00;97902.05;110208;1243;70994;-65
2023/09/02 05:14:01;;;;;;;3.80;3.10;;;;;;;14.96;100.00;97900.92;110447;1241;68451;-67
2023/09/02 05:16:33;;;;;;;5.50;3.70;;;;;;;15.23;100.00;97904.45;110177;1242;69954;-66
2023/09/02 05:19:03;;;;;;;;;;;;;;;15.45;99.87;97904.34;110206;1242;58936;-64
2023/09/02 05:21:34;;;;;;;4.00;3.00;;;;;;;15.61;99.27;97901.77;110360;1244;58894;-67
2023/09/02 05:24:04;;;;;;;;;;;;;;;15.84;97.41;97902.77;110396;1242;70492;-67
2023/09/02 05:26:35;;;;;;;6.40;4.30;;;;;;;16.08;97.11;97899.98;110476;1241;68113;-67
2023/09/02 05:29:05;;;;;;;5.90;4.60;;;;;;;16.26;95.07;97905.04;110270;1242;69083;-67
2023/09/02 05:31:35;;;;;;;4.90;3.80;;;;;;;16.47;94.43;97908.55;110338;1241;58985;-65
2023/09/02 05:34:05;;;;;;;5.10;3.50;;;;;;;16.69;90.94;97907.59;110284;1242;58937;-67
2023/09/02 05:36:35;;;;;;;5.20;3.90;;;;;;;16.95;90.07;97909.18;110361;1241;71244;-67
2023/09/02 05:39:04;;;;;;;;;;;;;;;17.31;93.70;97910.03;110424;1241;69089;-64
2023/09/02 05:41:34;;;;;;;5.70;3.20;;;;;;;17.61;89.77;97907.07;110347;1242;69276;-66
2023/09/02 05:44:06;;;;;;;4.60;3.30;;;;;;;18.00;93.10;97906.61;110387;1242;58890;-64
2023/09/02 05:46:35;;;;;;;;;;;;;;;18.34;90.58;97912.85;110305;1243;58882;-65
2023/09/02 05:49:04;;;;;;;4.90;3.30;;;;;;;18.51;84.20;97910.36;110344;1242;71171;-66
2023/09/02 05:51:33;;;;;;;;;;;;;;;18.86;88.09;97909.55;110375;1242;69189;-66
2023/09/02 05:54:03;;;;;;;4.50;3.30;;;;;;;19.15;86.33;97912.85;110347;1241;69211;-65
2023/09/02 05:56:33;;;;;;;5.70;3.10;;;;;;;19.44;80.12;97907.70;110412;1242;58902;-65
2023/09/02 05:59:03;;;;;;;3.70;3.10;;;;;;;19.72;83.64;97909.30;110476;1241;58875;-64
2023/09/02 06:01:33;;;;;;;3.30;2.70;;;;;;;19.92;79.35;97909.55;110503;1241;71168;-66
2023/09/02 06:04:03;;;;;;;2.90;2.50;;;;;;;20.06;70.98;97907.02;110547;1243;69151;-65
2023/09/02 06:06:32;;;;;;;3.80;2.90;;;;;;;20.30;73.58;97907.98;110476;1241;69849;-65
2023/09/02 06:09:02;;;;;;;3.20;2.90;;;;;;;20.27;69.84;97910.83;110506;1242;58963;-67
2023/09/02 06:11:32;;;;;;;2.90;2.40;;;;;;;20.46;68.98;97912.53;110188;1241;58863;-66
2023/09/02 06:14:02;;;;;;;3.40;2.80;;;;;;;20.62;66.61;97913.55;110385;1241;70543;-64
2023/09/02 06:16:31;;;;;;;3.90;3.20;;;;;;;20.76;67.54;97915.60;110376;1242;69778;-65
2023/09/02 06:19:00;;;;;;;3.90;3.20;;;;;;;20.78;66.98;97916.27;110383;1242;69188;-66
2023/09/02 06:21:30;;;;;;;4.60;3.80;;;;;;;21.04;72.09;97921.90;110506;1240;58929;-65
2023/09/02 06:24:00;;;;;;;5.00;3.80;;;;;;;21.31;69.75;97919.00;110523;1241;58922;-65
2023/09/02 06:26:30;;;;;;;5.40;4.00;;;;;;;21.41;68.91;97920.83;110400;1242;70649;-66
2023/09/02 06:28:59;;;;;;;;;;;;;;;21.41;66.42;97919.95;110318;1249;69811;-65
2023/09/02 06:31:29;;;;;;;4.60;3.40;;;;;;;21.51;65.35;97919.83;110353;1241;69332;-66
2023/09/02 06:33:58;;;;;;;4.60;3.50;;;;;;;21.68;65.76;97911.82;110315;1245;58873;-64
2023/09/02 06:36:28;;;;;;;4.00;3.20;;;;;;;22.01;65.79;97910.27;110358;1242;58920;-64
2023/09/02 06:38:57;;;;;;;5.50;3.40;;;;;;;22.36;65.24;97909.85;110188;1247;68862;-63
2023/09/02 06:41:26;;;;;;;4.00;3.20;;;;;;;22.43;61.68;97909.39;110295;1241;68341;-66
2023/09/02 06:43:56;;;;;;;4.40;3.00;;;;;;;22.56;61.45;97914.15;110397;1249;67532;-66
2023/09/02 06:46:24;;;;;;;3.60;3.10;;;;;;;22.77;62.38;97916.16;110255;1242;58934;-64
2023/09/02 06:48:54;;;;;;;3.20;2.60;;;;;;;22.84;60.67;97913.45;110464;1242;58839;-64
2023/09/02 06:51:23;;;;;;;3.90;2.90;;;;;;;23.06;60.11;97911.63;110350;1241;69565;-65
2023/09/02 06:53:52;;;;;;;3.00;2.50;;;;;;;23.40;59.75;97913.21;110440;1240;69223;-66
2023/09/02 06:56:21;;;;;;;;;;;;;;;23.71;60.96;97918.08;110220;1245;69132;-66
2023/09/02 06:58:51;;;;;;;3.50;3.00;;;;;;;23.73;55.16;97915.52;110540;1242;58872;-63
2023/09/02 07:01:26;;;;;;;3.50;2.60;;;;;;;23.86;55.70;97913.34;110477;1249;58962;-63
2023/09/02 07:03:56;;;;;;;4.00;2.50;;;;;;;24.03;55.47;97910.48;110488;1242;70419;-65
2023/09/02 07:06:25;;;;;;;3.90;2.90;;;;;;;24.26;55.50;97906.60;110450;1242;69226;-63
2023/09/02 07:08:54;;;;;;;3.90;2.90;;;;;;;24.13;54.64;97908.87;110307;1241;69270;-66
2023/09/02 07:11:24;;;;;;;3.90;2.80;;;;;;;24.17;55.17;97913.06;110299;1241;58871;-64
2023/09/02 07:13:53;;;;;;;3.40;2.80;;;;;;;24.39;54.49;97911.84;110491;1240;58888;-65
2023/09/02 07:16:23;;;;;;;3.90;2.70;;;;;;;24.32;53.61;97910.39;110497;1245;71143;-65
2023/09/02 07:18:52;;;;;;;3.40;2.60;;;;;;;24.15;53.71;97911.52;110426;1241;69817;-67
2023/09/02 07:21:22;;;;;;;;;;;;;;;24.43;54.55;97911.43;110407;1248;68365;-65
2023/09/02 07:23:52;;;;;;;3.00;2.50;;;;;;;24.95;54.12;97916.52;110350;1241;58874;-65
2023/09/02 07:26:28;;;;;;;3.20;2.30;;;;;;;25.22;50.68;97909.47;110412;1241;58875;-63
2023/09/02 07:28:58;;;;;;;2.70;2.40;;;;;;;25.51;50.78;97912.77;110429;1242;70598;-64
2023/09/02 07:31:27;;;;;;;3.10;2.50;;;;;;;25.74;50.10;97911.73;110204;1241;70032;-65
2023/09/02 07:33:57;;;;;;;3.20;2.40;;;;;;;25.90;48.08;97906.88;110447;1241;69192;-65
2023/09/02 07:36:28;;;;;;;4.30;2.30;;;;;;;25.93;48.51;97909.64;110435;1241;58938;-67
2023/09/02 07:38:57;;;;;;;3.30;2.30;;;;;;;25.87;48.50;97907.85;110357;1241;58878;-66
2023/09/02 07:41:27;;;;;;;3.70;2.80;;;;;;;25.87;49.44;97909.89;110356;1241;69758;-65
2023/09/02 07:43:57;;;;;;;3.30;2.50;;;;;;;25.79;48.07;97909.17;110440;1241;68562;-65
2023/09/02 07:46:25;;;;;;;3.90;2.40;;;;;;;26.22;49.45;97904.69;110473;1241;69382;-63
2023/09/02 07:48:55;;;;;;;2.60;2.00;;;;;;;26.49;47.11;97904.17;110425;1241;58866;-66
2023/09/02 07:51:25;;;;;;;3.10;2.50;;;;;;;26.53;45.84;97903.77;110329;1241;58875;-65
2023/09/02 07:53:54;;;;;;;3.40;2.20;;;;;;;26.29;45.87;97903.70;110411;1241;70293;-65
2023/09/02 07:56:24;;;;;;;2.90;2.50;;;;;;;26.51;44.93;97903.45;110049;1241;425150;-64
2023/09/02 07:58:53;;;;;;;3.00;2.00;;;;;;;26.56;44.94;97906.96;110483;1241;69244;-63
2023/09/02 08:01:22;;;;;;;3.60;2.60;;;;;;;27.12;46.21;97912.23;110494;1242;58927;-64
2023/09/02 08:03:52;;;;;;;3.20;2.40;;;;;;;27.17;43.39;97910.45;110443;1241;58931;-64
2023/09/02 08:06:21;;;;;;;2.80;2.20;;;;;;;26.54;43.29;97906.14;110317;1243;71158;-66
2023/09/02 08:08:53;;;;;;;2.50;1.90;;;;;;;26.91;43.57;97903.38;110435;1241;69410;-63
2023/09/02 08:11:22;;;;;;;3.10;1.90;;;;;;;27.41;42.51;97906.71;110330;1241;69904;-66
2023/09/02 08:13:52;;;;;;;2.70;2.10;;;;;;;27.85;43.12;97908.17;110416;1245;58927;-64
2023/09/02 08:16:21;;;;;;;4.20;2.60;;;;;;;28.15;41.90;97907.01;110456;1240;58886;-64
2023/09/02 08:18:51;;;;;;;3.10;2.70;;;;;;;28.57;42.04;97909.68;110411;1241;69796;-64
2023/09/02 08:21:20;;;;;;;2.90;2.20;;;;;;;28.53;40.19;97907.55;110195;1240;68671;-62
2023/09/02 08:23:48;;;;;;;3.90;2.60;;;;;;;28.34;40.07;97911.02;110428;1242;68502;-65
2023/09/02 08:26:18;;;;;;;3.40;2.30;;;;;;;28.10;40.05;97908.09;110433;1242;58960;-65
2023/09/02 08:28:47;;;;;;;2.80;2.50;;;;;;;28.09;40.97;97908.55;110355;1241;58855;-65
2023/09/02 08:31:20;;;;;;;3.00;2.10;;;;;;;28.15;40.25;97907.66;110178;1245;71161;-64
2023/09/02 08:33:49;;;;;;;3.20;2.50;;;;;;;28.21;40.10;97914.64;110316;1241;70170;-63
2023/09/02 08:36:18;;;;;;;3.10;2.50;;;;;;;28.50;38.73;97909.98;110406;1242;70603;-64
2023/09/02 08:38:47;;;;;;;2.90;2.40;;;;;;;27.93;38.42;97915.55;110322;1243;58946;-66
2023/09/02 08:41:35;;;;;;;2.40;2.10;;;;;;;27.72;39.26;97916.09;110336;1241;58970;-65
2023/09/02 08:44:05;;;;;;;2.50;2.00;;;;;;;28.14;39.37;97916.14;110371;1241;70387;-65
2023/09/02 08:46:38;;;;;;;3.50;2.00;;;;;;;28.69;38.65;97916.56;110371;1241;70058;-63
2023/09/02 08:49:09;;;;;;;3.30;2.20;;;;;;;29.27;38.44;97919.25;110435;1242;69713;-66
2023/09/02 08:51:39;;;;;;;4.20;2.60;;;;;;;29.96;37.34;97920.41;110432;1241;58942;-63
2023/09/02 08:54:10;;;;;;;3.20;2.10;;;;;;;30.31;36.67;97918.85;110441;1241;58959;-65
2023/09/02 08:56:41;;;;;;;2.40;2.10;;;;;;;30.39;36.57;97915.25;110475;1240;71176;-65
2023/09/02 08:59:11;;;;;;;2.80;2.50;;;;;;;30.72;35.06;97916.58;110405;1241;69582;-64
2023/09/02 09:01:44;;;;;;;3.70;2.50;;;;;;;30.38;35.12;97911.41;110211;1241;68689;-65
2023/09/02 09:04:15;;;;;;;3.40;2.30;;;;;;;30.98;35.02;97914.47;110425;1241;58896;-65
2023/09/02 09:06:45;;;;;;;2.10;1.90;;;;;;;31.40;34.57;97909.45;110447;1241;58872;-65
2023/09/02 09:09:17;;;;;;;2.00;1.70;;;;;;;31.86;34.22;97908.89;110413;1241;70651;-64
2023/09/02 09:11:48;;;;;;;2.80;2.00;;;;;;;32.00;33.65;97909.20;110337;1241;69090;-64
2023/09/02 09:14:23;;;;;;;2.70;2.20;;;;;;;31.59;34.34;97910.95;110325;1241;69273;-64
2023/09/02 09:16:55;;;;;;;2.80;2.20;;;;;;;31.43;34.43;97905.58;110365;1240;58939;-64
2023/09/02 09:19:25;;;;;;;2.70;1.90;;;;;;;32.07;34.41;97907.11;110336;1241;58850;-65
2023/09/02 09:21:55;;;;;;;2.90;2.30;;;;;;;32.17;34.36;97906.38;110414;1241;71148;-64
2023/09/02 09:24:26;;;;;;;3.40;2.40;;;;;;;32.46;34.21;97904.18;110484;1241;68808;-65
2023/09/02 09:27:00;;;;;;;2.60;2.10;;;;;;;32.70;33.48;97908.62;110407;1241;69866;-67
2023/09/02 09:29:42;;;;;;;3.00;2.30;;;;;;;32.13;33.34;97907.76;110343;1241;58927;-65
2023/09/02 09:32:13;;;;;;;2.50;2.30;;;;;;;31.91;33.72;97905.05;110371;1241;59478;-65
2023/09/02 09:34:44;;;;;;;4.10;2.70;;;;;;;31.25;34.09;97908.84;110290;1242;69902;-64
2023/09/02 09:37:14;;;;;;;4.40;3.10;;;;;;;31.07;34.42;97903.48;110313;1242;69855;-65
2023/09/02 09:39:46;;;;;;;2.80;2.50;;;;;;;30.92;34.76;97903.67;110299;1241;69667;-64
2023/09/02 09:42:17;;;;;;;3.20;2.30;;;;;;;30.82;34.37;97896.27;110251;1241;58916;-65
2023/09/02 09:44:58;;;;;;;3.30;2.80;;;;;;;31.06;35.12;97897.33;110311;1240;58875;-65
2023/09/02 09:47:27;;;;;;;4.40;3.20;;;;;;;31.29;33.31;97889.22;110296;1241;69936;-65
2023/09/02 09:50:11;;;;;;;2.90;2.60;;;;;;;31.64;33.03;97891.77;110336;1241;69718;-64
2023/09/02 09:52:56;;;;;;;3.90;2.70;;;;;;;31.81;33.23;97896.77;110428;1241;69180;-67
2023/09/02 09:55:25;;;;;;;3.00;2.10;;;;;;;32.04;33.31;97891.46;110393;1241;58881;-66
2023/09/02 09:57:57;;;;;;;2.40;2.00;;;;;;;32.73;32.58;97888.86;110473;1241;58927;-65
2023/09/02 10:00:28;;;;;;;2.70;2.30;;;;;;;33.07;32.59;97890.26;110435;1241;69746;-65
2023/09/02 10:02:58;;;;;;;3.20;2.50;;;;;;;33.31;33.15;97887.04;110385;1241;68747;-65
2023/09/02 10:05:29;;;;;;;3.00;2.10;;;;;;;34.01;32.57;97882.16;110434;1245;69254;-65
2023/09/02 10:08:01;;;;;;;2.40;2.00;;;;;;;34.30;31.26;97880.90;110355;1241;58852;-66
2023/09/02 10:10:35;;;;;;;3.00;1.80;;;;;;;34.54;30.34;97877.02;110355;1242;58927;-65
2023/09/02 10:13:05;;;;;;;2.10;1.70;;;;;;;35.22;29.67;97877.89;110432;1240;71021;-64
2023/09/02 10:15:34;;;;;;;3.60;2.20;;;;;;;34.77;29.12;97880.11;110334;1241;68431;-64
2023/09/02 10:18:04;;;;;;;2.20;1.80;;;;;;;34.44;28.95;97880.47;110454;1240;69698;-65
2023/09/02 10:20:35;;;;;;;2.40;1.70;;;;;;;35.00;29.35;97877.42;110379;1242;58947;-63
2023/09/02 10:23:08;;;;;;;1.80;1.60;;;;;;;34.89;28.34;97877.59;110231;1241;58928;-64
2023/09/02 10:26:02;;;;;;;2.40;1.90;;;;;;;35.21;29.12;97875.15;110468;1241;70548;-64
2023/09/02 10:28:40;;;;;;;2.30;1.60;;;;;;;35.97;27.83;97878.88;110430;1241;69912;-65
2023/09/02 10:31:22;;;;;;;1.90;1.70;;;;;;;36.07;26.61;97872.90;110413;1241;68932;-65
2023/09/02 10:34:04;;;;;;;2.40;1.70;;;;;;;36.47;26.74;97872.64;110412;1249;58889;-64
2023/09/02 10:36:38;;;;;;;2.30;1.90;;;;;;;35.79;26.72;97870.77;110385;1241;58919;-65
2023/09/02 10:39:16;;;;;;;1.80;1.60;;;;;;;35.59;26.84;97871.90;110383;1241;71175;-64
2023/09/02 10:41:47;;;;;;;2.40;2.00;;;;;;;35.47;27.22;97868.59;110443;1243;68475;-65
2023/09/02 10:44:18;;;;;;;1.80;1.50;;;;;;;36.06;26.11;97866.42;110401;1242;69840;-65
2023/09/02 10:46:47;;;;;;;2.20;1.30;;;;;;;36.43;24.62;97864.79;110407;1241;58889;-66
2023/09/02 10:49:17;;;;;;;2.20;1.40;;;;;;;36.50;24.33;97864.06;110354;1241;58902;-65
2023/09/02 10:51:46;;;;;;;3.60;2.20;;;;;;;36.99;25.58;97867.55;110313;1241;71097;-66
2023/09/02 10:54:15;;;;;;;1.50;1.40;;;;;;;36.83;23.88;97865.55;110416;1241;69227;-65
2023/09/02 10:56:45;;;;;;;2.70;1.50;;;;;;;36.25;24.19;97863.10;110369;1241;69673;-65
2023/09/02 10:59:29;;;;;;;1.60;1.40;;;;;;;36.72;24.24;97860.79;110437;1247;58847;-65
2023/09/02 11:01:58;;;;;;;1.70;1.30;;;;;;;36.41;24.27;97860.31;110433;1241;58937;-65
2023/09/02 11:04:39;;;;;;;2.20;1.40;;;;;;;37.10;24.36;97863.52;110346;1240;70946;-64
2023/09/02 11:07:18;;;;;;;1.50;1.10;;;;;;;37.55;23.24;97863.81;110264;1241;69759;-65
2023/09/02 11:09:58;;;;;;;2.20;1.30;;;;;;;37.46;22.48;97862.11;110411;1241;68487;-65
2023/09/02 11:12:27;;;;;;;1.60;1.20;;;;;;;37.38;23.85;97864.02;110347;1241;58942;-64
2023/09/02 11:15:09;;;;;;;1.60;1.30;;;;;;;37.68;22.64;97862.98;110310;1241;58886;-65
2023/09/02 11:17:41;;;;;;;2.30;1.70;;;;;;;37.25;21.68;97857.60;110262;1240;71160;-65
2023/09/02 11:20:13;;;;;;;2.00;1.30;;;;;;;36.79;22.78;97854.88;110341;1242;69816;-65
2023/09/02 11:22:55;;;;;;;2.50;1.50;;;;;;;37.13;23.06;97855.04;110257;1241;69863;-65
2023/09/02 11:25:26;;;;;;;2.10;1.40;;;;;;;36.93;22.13;97856.73;110443;1241;58938;-63
2023/09/02 11:27:59;;;;;;;2.30;1.40;;;;;;;36.56;22.84;97855.31;110414;1241;58891;-66
2023/09/02 11:30:30;;;;;;;1.60;1.30;;;;;;;36.89;22.27;97852.84;110328;1241;71308;-66
2023/09/02 11:32:59;;;;;;;1.50;1.30;;;;;;;36.72;22.29;97853.84;110305;1242;69092;-66
2023/09/02 11:35:31;;;;;;;1.40;1.20;;;;;;;36.85;21.86;97850.59;110330;1241;68379;-66
2023/09/02 11:38:02;;;;;;;2.00;1.40;;;;;;;36.87;22.15;97852.54;110411;1241;58927;-66
2023/09/02 11:40:31;;;;;;;1.80;1.50;;;;;;;37.29;22.27;97855.65;110388;1241;59363;-67
2023/09/02 11:43:02;;;;;;;1.60;1.10;;;;;;;37.80;22.41;97860.23;110334;1241;70234;-66
2023/09/02 11:45:38;;;;;;;2.70;1.40;;;;;;;37.76;21.98;97851.84;110412;1242;69830;-65